createdAt,value
2023-01-30T00:00:31.633Z,11.40
2023-01-30T00:03:04.791Z,11.55
2023-01-30T00:05:37.780Z,9.77
2023-01-30T00:08:10.779Z,9.80
2023-01-30T00:10:44.102Z,10.40
2023-01-30T00:13:18.504Z,10.48
2023-01-30T00:15:51.483Z,10.13
2023-01-30T00:18:24.454Z,10.48
2023-01-30T00:20:57.920Z,10.73
2023-01-30T00:23:32.523Z,9.50
2023-01-30T00:26:08.403Z,9.57
2023-01-30T00:28:42.810Z,9.48
2023-01-30T00:31:15.824Z,9.57
2023-01-30T00:33:48.892Z,9.43
2023-01-30T00:36:21.851Z,9.27
2023-01-30T00:38:57.472Z,9.33
2023-01-30T00:41:50.405Z,9.23
2023-01-30T00:44:42.348Z,9.80
2023-01-30T00:47:15.472Z,9.07
2023-01-30T00:49:48.444Z,8.67
2023-01-30T00:52:22.778Z,8.80
2023-01-30T00:54:57.455Z,9.93
2023-01-30T00:57:30.403Z,10.02
2023-01-30T01:00:06.321Z,9.57
2023-01-30T01:02:39.326Z,9.63
2023-01-30T01:05:12.336Z,10.57
2023-01-30T01:07:45.347Z,12.02
2023-01-30T01:10:18.753Z,11.03
2023-01-30T01:12:53.383Z,10.80
2023-01-30T01:15:27.952Z,12.65
2023-01-30T01:18:01.100Z,11.35
2023-01-30T01:20:34.280Z,12.20
2023-01-30T01:23:11.965Z,12.05
2023-01-30T01:25:45.111Z,11.52
2023-01-30T01:28:21.756Z,11.40
2023-01-30T01:30:56.127Z,12.48
2023-01-30T01:33:29.667Z,12.48
2023-01-30T01:36:04.840Z,12.48
2023-01-30T01:38:38.972Z,12.27
2023-01-30T01:41:12.942Z,12.38
2023-01-30T01:44:04.392Z,11.95
2023-01-30T01:46:44.949Z,12.13
2023-01-30T01:49:23.779Z,11.95
2023-01-30T01:52:00.576Z,10.70
2023-01-30T01:54:40.431Z,11.90
2023-01-30T01:57:19.335Z,13.18
2023-01-30T01:59:56.214Z,11.38
2023-01-30T02:02:30.621Z,11.10
2023-01-30T02:05:06.555Z,11.68
2023-01-30T02:07:44.731Z,11.90
2023-01-30T02:10:21.909Z,11.77
2023-01-30T02:12:54.866Z,11.82
2023-01-30T02:15:28.119Z,13.13
2023-01-30T02:18:03.160Z,13.07
2023-01-30T02:20:56.967Z,12.00
2023-01-30T02:24:05.611Z,12.48
2023-01-30T02:27:04.035Z,13.10
2023-01-30T02:30:06.343Z,12.68
2023-01-30T02:32:51.664Z,11.63
2023-01-30T02:35:32.872Z,13.15
2023-01-30T02:38:20.388Z,12.05
2023-01-30T02:41:02.898Z,12.80
2023-01-30T02:43:45.653Z,12.35
2023-01-30T02:46:23.283Z,12.40
2023-01-30T02:49:01.960Z,13.70
2023-01-30T02:51:37.993Z,12.93
2023-01-30T02:54:12.820Z,13.07
2023-01-30T02:56:48.102Z,13.07
2023-01-30T02:59:24.336Z,13.60
2023-01-30T03:02:17.173Z,13.55
2023-01-30T03:05:11.939Z,14.07
2023-01-30T03:07:50.329Z,13.80
2023-01-30T03:10:35.019Z,13.55
2023-01-30T03:13:20.053Z,12.85
2023-01-30T03:15:56.878Z,12.93
2023-01-30T03:18:30.516Z,12.35
2023-01-30T03:21:07.985Z,12.63
2023-01-30T03:23:40.987Z,13.98
2023-01-30T03:26:18.898Z,12.07
2023-01-30T03:28:53.988Z,11.43
2023-01-30T03:31:27.066Z,12.07
2023-01-30T03:34:01.281Z,10.80
2023-01-30T03:36:36.612Z,11.80
2023-01-30T03:39:09.668Z,11.85
2023-01-30T03:41:42.934Z,12.80
2023-01-30T03:44:15.922Z,10.73
2023-01-30T03:46:49.329Z,11.90
2023-01-30T03:49:22.336Z,10.50
2023-01-30T03:51:56.761Z,11.10
2023-01-30T03:54:29.780Z,10.40
2023-01-30T03:57:02.711Z,10.30
2023-01-30T03:59:35.845Z,10.57
2023-01-30T04:02:14.906Z,10.77
2023-01-30T04:04:49.344Z,10.25
2023-01-30T04:07:23.850Z,10.03
2023-01-30T04:09:58.227Z,9.35
2023-01-30T04:12:31.651Z,9.43
2023-01-30T04:15:07.204Z,9.25
2023-01-30T04:17:57.819Z,9.27
2023-01-30T04:20:42.719Z,8.38
2023-01-30T04:23:17.227Z,8.20
2023-01-30T04:25:50.412Z,8.68
2023-01-30T04:28:26.000Z,9.15
2023-01-30T04:33:51.410Z,8.15
2023-01-30T04:36:24.900Z,9.35
2023-01-30T04:38:59.361Z,8.57
2023-01-30T04:41:35.298Z,9.15
2023-01-30T04:44:09.070Z,8.45
2023-01-30T04:47:00.575Z,10.43
2023-01-30T04:49:33.954Z,8.98
2023-01-30T04:52:08.823Z,9.52
2023-01-30T04:57:16.935Z,9.18
2023-01-30T04:59:50.045Z,8.85
2023-01-30T05:02:24.487Z,9.25
2023-01-30T05:04:57.442Z,9.00
2023-01-30T05:07:30.386Z,9.52
2023-01-30T05:10:05.401Z,8.55
2023-01-30T05:12:38.393Z,8.70
2023-01-30T05:15:12.548Z,9.65
2023-01-30T05:17:45.566Z,9.73
2023-01-30T05:20:18.908Z,9.63
2023-01-30T05:22:51.954Z,9.27
2023-01-30T05:25:26.495Z,9.52
2023-01-30T05:28:00.115Z,8.77
2023-01-30T05:30:33.137Z,8.65
2023-01-30T05:33:06.109Z,9.27
2023-01-30T05:35:39.204Z,8.50
2023-01-30T05:38:12.183Z,8.82
2023-01-30T05:40:46.582Z,9.17
2023-01-30T05:43:19.554Z,9.52
2023-01-30T05:45:54.372Z,9.48
2023-01-30T05:48:28.689Z,9.70
2023-01-30T05:51:01.953Z,10.65
2023-01-30T05:53:35.656Z,9.80
2023-01-30T05:56:10.688Z,9.05
2023-01-30T05:58:43.908Z,10.35
2023-01-30T06:01:17.217Z,8.45
2023-01-30T06:03:53.058Z,8.10
2023-01-30T06:06:26.586Z,9.43
2023-01-30T06:08:59.615Z,9.38
2023-01-30T06:11:38.543Z,9.47
2023-01-30T06:14:11.515Z,10.10
2023-01-30T06:16:44.518Z,9.55
2023-01-30T06:19:17.506Z,10.18
2023-01-30T06:21:50.548Z,9.95
2023-01-30T06:24:23.888Z,9.20
2023-01-30T06:26:59.918Z,10.23
2023-01-30T06:29:32.899Z,9.73
2023-01-30T06:32:06.463Z,8.90
2023-01-30T06:34:39.443Z,9.93
2023-01-30T06:37:12.448Z,9.13
2023-01-30T06:39:45.457Z,10.43
2023-01-30T06:42:21.841Z,9.60
2023-01-30T06:44:54.860Z,10.35
2023-01-30T06:47:27.771Z,10.60
2023-01-30T06:50:00.784Z,10.63
2023-01-30T06:52:33.756Z,10.13
2023-01-30T06:55:08.344Z,10.45
2023-01-30T06:57:42.999Z,11.07
2023-01-30T07:00:18.327Z,10.32
2023-01-30T07:02:51.341Z,10.80
2023-01-30T07:05:24.457Z,11.03
2023-01-30T07:07:57.549Z,9.57
2023-01-30T07:10:32.445Z,10.15
2023-01-30T07:13:06.876Z,10.98
2023-01-30T07:15:40.147Z,11.02
2023-01-30T07:18:13.217Z,10.95
2023-01-30T07:20:48.435Z,10.67
2023-01-30T07:23:21.482Z,11.55
2023-01-30T07:25:55.483Z,12.03
2023-01-30T07:31:03.217Z,12.25
2023-01-30T07:33:36.283Z,11.93
2023-01-30T07:36:10.168Z,11.67
2023-01-30T07:38:43.151Z,11.45
2023-01-30T07:41:16.239Z,12.67
2023-01-30T07:43:51.593Z,12.67
2023-01-30T07:46:24.604Z,11.55
2023-01-30T07:48:59.758Z,11.52
2023-01-30T07:51:33.401Z,12.50
2023-01-30T07:54:06.469Z,13.40
2023-01-30T07:56:39.696Z,12.97
2023-01-30T07:59:14.072Z,12.98
2023-01-30T08:01:47.026Z,12.52
2023-01-30T08:04:20.379Z,16.17
2023-01-30T08:06:56.361Z,13.88
2023-01-30T08:09:29.378Z,14.93
2023-01-30T08:12:02.350Z,11.25
2023-01-30T08:14:36.760Z,13.93
2023-01-30T08:17:09.728Z,13.23
2023-01-30T08:19:42.727Z,13.93
2023-01-30T08:22:16.349Z,13.55
2023-01-30T08:24:49.484Z,12.48
2023-01-30T08:27:22.719Z,13.35
2023-01-30T08:29:57.309Z,12.57
2023-01-30T08:32:30.252Z,13.32
2023-01-30T08:35:03.472Z,13.40
2023-01-30T08:37:36.392Z,12.15
2023-01-30T08:40:10.996Z,13.60
2023-01-30T08:42:45.311Z,13.23
2023-01-30T08:45:19.732Z,13.45
2023-01-30T08:47:52.723Z,14.32
2023-01-30T08:50:25.694Z,14.05
2023-01-30T08:52:58.693Z,16.25
2023-01-30T08:55:31.760Z,14.88
2023-01-30T08:58:04.749Z,14.27
2023-01-30T09:00:39.853Z,15.17
2023-01-30T09:03:14.342Z,13.93
2023-01-30T09:05:47.395Z,14.98
2023-01-30T09:08:20.386Z,14.87
2023-01-30T09:10:53.398Z,15.47
2023-01-30T09:13:26.533Z,15.20
2023-01-30T09:16:00.985Z,17.77
2023-01-30T09:18:34.018Z,17.95
2023-01-30T09:21:07.600Z,15.07
2023-01-30T09:23:40.606Z,15.98
2023-01-30T09:26:13.667Z,15.33
2023-01-30T09:28:46.675Z,14.03
2023-01-30T09:31:21.149Z,14.60
2023-01-30T09:33:54.173Z,15.63
2023-01-30T09:36:27.143Z,15.25
2023-01-30T09:39:00.224Z,14.27
2023-01-30T09:41:47.729Z,15.00
2023-01-30T09:44:59.175Z,12.63
2023-01-30T09:47:39.898Z,13.68
2023-01-30T09:50:31.798Z,13.38
2023-01-30T09:53:13.469Z,12.27
2023-01-30T09:55:47.559Z,12.38
2023-01-30T09:58:23.753Z,13.25
2023-01-30T10:01:06.411Z,13.50
2023-01-30T10:03:56.468Z,12.98
2023-01-30T10:06:30.152Z,12.77
2023-01-30T10:09:14.389Z,12.85
2023-01-30T10:14:42.678Z,11.57
2023-01-30T10:17:32.553Z,11.30
2023-01-30T10:20:31.666Z,11.45
2023-01-30T10:23:28.668Z,12.45
2023-01-30T10:26:08.368Z,11.68
2023-01-30T10:28:55.403Z,12.40
2023-01-30T10:31:36.045Z,12.18
2023-01-30T10:34:14.831Z,12.75
2023-01-30T10:36:53.911Z,12.27
2023-01-30T10:39:36.894Z,10.77
2023-01-30T10:42:14.539Z,11.35
2023-01-30T10:44:48.989Z,12.52
2023-01-30T10:47:46.241Z,10.98
2023-01-30T10:50:22.845Z,11.43
2023-01-30T10:53:06.778Z,11.95
2023-01-30T10:55:47.237Z,13.07
2023-01-30T10:58:26.618Z,10.68
2023-01-30T11:01:02.120Z,11.90
2023-01-30T11:03:41.562Z,11.70
2023-01-30T11:06:18.332Z,12.15
2023-01-30T11:08:53.256Z,12.25
2023-01-30T11:11:31.019Z,12.50
2023-01-30T11:14:06.274Z,12.02
2023-01-30T11:16:45.231Z,11.20
2023-01-30T11:19:22.389Z,12.18
2023-01-30T11:21:57.699Z,11.63
2023-01-30T11:24:39.514Z,12.73
2023-01-30T11:27:17.933Z,11.15
2023-01-30T11:29:52.476Z,12.57
2023-01-30T11:32:29.088Z,11.73
2023-01-30T11:35:22.290Z,10.93
2023-01-30T11:37:55.335Z,11.65
2023-01-30T11:40:31.648Z,11.47
2023-01-30T11:43:07.557Z,11.85
2023-01-30T11:45:42.952Z,10.80
2023-01-30T11:48:32.860Z,12.48
2023-01-30T11:51:08.537Z,11.23
2023-01-30T11:53:45.815Z,11.02
2023-01-30T11:56:24.252Z,10.23
2023-01-30T11:58:59.963Z,11.13
2023-01-30T12:01:34.972Z,11.38
2023-01-30T12:04:12.241Z,11.63
2023-01-30T12:06:45.267Z,11.05
2023-01-30T12:09:38.126Z,12.37
2023-01-30T12:12:30.423Z,11.82
2023-01-30T12:15:20.737Z,10.27
2023-01-30T12:18:01.356Z,10.55
2023-01-30T12:20:50.877Z,9.48
2023-01-30T12:23:34.949Z,8.95
2023-01-30T12:26:14.289Z,10.68
2023-01-30T12:28:56.175Z,10.63
2023-01-30T12:31:35.948Z,10.07
2023-01-30T12:34:10.532Z,10.23
2023-01-30T12:36:49.347Z,9.88
2023-01-30T12:39:37.324Z,10.60
2023-01-30T12:42:27.841Z,11.05
2023-01-30T12:45:16.102Z,10.90
2023-01-30T12:48:02.536Z,10.55
2023-01-30T12:50:47.684Z,10.90
2023-01-30T12:53:32.666Z,9.52
2023-01-30T12:56:34.591Z,9.88
2023-01-30T12:59:16.158Z,10.13
2023-01-30T13:02:02.440Z,8.32
2023-01-30T13:04:56.460Z,10.02
2023-01-30T13:07:43.533Z,11.23
2023-01-30T13:10:26.222Z,10.10
2023-01-30T13:13:11.505Z,10.90
2023-01-30T13:15:53.641Z,10.63
2023-01-30T13:18:33.609Z,9.50
2023-01-30T13:21:12.617Z,14.30
2023-01-30T13:23:56.505Z,10.63
2023-01-30T13:26:34.923Z,11.60
2023-01-30T13:29:15.852Z,10.57
2023-01-30T13:31:54.734Z,11.18
2023-01-30T13:34:33.762Z,9.88
2023-01-30T13:37:14.265Z,10.93
2023-01-30T13:39:53.869Z,11.07
2023-01-30T13:42:37.404Z,10.82
2023-01-30T13:45:21.078Z,11.35
2023-01-30T13:48:08.909Z,11.40
2023-01-30T13:50:59.787Z,11.07
2023-01-30T13:53:40.533Z,10.45
2023-01-30T13:56:40.159Z,13.65
2023-01-30T13:59:26.469Z,13.40
2023-01-30T14:02:20.260Z,13.75
2023-01-30T14:04:54.696Z,14.02
2023-01-30T14:07:32.104Z,14.23
2023-01-30T14:10:16.258Z,13.23
2023-01-30T14:15:31.778Z,11.38
2023-01-30T14:18:07.993Z,12.82
2023-01-30T14:20:46.668Z,12.40
2023-01-30T14:23:30.087Z,13.93
2023-01-30T14:26:03.215Z,13.43
2023-01-30T14:28:52.397Z,14.05
2023-01-30T14:31:53.931Z,12.60
2023-01-30T14:34:45.440Z,14.93
2023-01-30T14:37:47.355Z,14.90
2023-01-30T14:40:41.731Z,15.35
2023-01-30T14:43:58.985Z,13.55
2023-01-30T14:46:55.831Z,15.10
2023-01-30T14:49:33.080Z,15.25
2023-01-30T14:52:07.019Z,15.07
2023-01-30T14:54:50.893Z,13.68
2023-01-30T14:57:32.620Z,12.98
2023-01-30T15:00:18.673Z,14.70
2023-01-30T15:02:55.170Z,14.80
2023-01-30T15:05:33.968Z,18.10
2023-01-30T15:08:11.271Z,17.45
2023-01-30T15:11:02.874Z,16.77
2023-01-30T15:14:00.122Z,15.52
2023-01-30T15:16:47.344Z,16.08
2023-01-30T15:19:38.420Z,15.00
2023-01-30T15:22:24.159Z,16.65
2023-01-30T15:25:20.234Z,16.33
2023-01-30T15:28:05.455Z,17.33
2023-01-30T15:30:57.490Z,17.95
2023-01-30T15:33:32.341Z,15.82
2023-01-30T15:36:20.524Z,15.25
2023-01-30T15:39:01.513Z,14.50
2023-01-30T15:41:42.545Z,13.82
2023-01-30T15:44:45.098Z,14.88
2023-01-30T15:47:38.728Z,15.35
2023-01-30T15:50:13.440Z,13.68
2023-01-30T15:52:49.538Z,13.63
2023-01-30T15:55:27.158Z,12.98
2023-01-30T15:58:10.355Z,13.25
2023-01-30T16:00:47.575Z,13.73
2023-01-30T16:03:25.275Z,17.80
2023-01-30T16:06:00.759Z,16.75
2023-01-30T16:08:36.720Z,17.37
2023-01-30T16:11:11.991Z,16.67
2023-01-30T16:13:45.017Z,17.75
2023-01-30T16:16:20.891Z,15.37
2023-01-30T16:18:58.509Z,16.15
2023-01-30T16:21:34.273Z,14.45
2023-01-30T16:24:13.675Z,15.40
2023-01-30T16:26:52.568Z,13.80
2023-01-30T16:29:28.438Z,16.92
2023-01-30T16:32:01.926Z,17.65
2023-01-30T16:34:39.670Z,18.35
2023-01-30T16:37:30.242Z,16.85
2023-01-30T16:40:15.308Z,16.50
2023-01-30T16:42:59.030Z,16.75
2023-01-30T16:46:22.813Z,18.52
2023-01-30T16:49:05.009Z,17.35
2023-01-30T16:51:42.381Z,14.27
2023-01-30T16:54:24.494Z,14.95
2023-01-30T16:57:00.696Z,15.45
2023-01-30T16:59:35.639Z,13.80
2023-01-30T17:02:09.159Z,13.07
2023-01-30T17:04:43.279Z,15.70
2023-01-30T17:07:35.066Z,14.80
2023-01-30T17:10:47.855Z,14.18
2023-01-30T17:13:32.944Z,13.60
2023-01-30T17:16:26.821Z,14.77
2023-01-30T17:19:00.902Z,12.35
2023-01-30T17:21:43.624Z,13.10
2023-01-30T17:24:20.641Z,14.40
2023-01-30T17:26:59.018Z,13.40
2023-01-30T17:29:42.565Z,13.25
2023-01-30T17:32:17.382Z,12.15
2023-01-30T17:34:50.385Z,12.48
2023-01-30T17:37:23.603Z,14.57
2023-01-30T17:39:57.985Z,11.70
2023-01-30T17:42:30.948Z,13.40
2023-01-30T17:45:04.492Z,13.10
2023-01-30T17:47:37.695Z,14.25
2023-01-30T17:50:14.562Z,15.40
2023-01-30T17:52:47.607Z,13.25
2023-01-30T17:55:22.163Z,13.65
2023-01-30T17:57:56.511Z,13.18
2023-01-30T18:00:29.719Z,13.57
2023-01-30T18:03:02.877Z,12.90
2023-01-30T18:05:37.418Z,11.52
2023-01-30T18:08:10.456Z,10.20
2023-01-30T18:10:44.823Z,10.77
2023-01-30T18:13:17.761Z,10.60
2023-01-30T18:15:50.768Z,11.15
2023-01-30T18:18:23.779Z,11.45
2023-01-30T18:20:56.780Z,12.00
2023-01-30T18:23:29.760Z,12.47
2023-01-30T18:26:04.323Z,12.37
2023-01-30T18:28:37.319Z,11.52
2023-01-30T18:31:11.133Z,11.55
2023-01-30T18:33:45.573Z,11.98
2023-01-30T18:36:20.466Z,12.52
2023-01-30T18:38:53.958Z,13.10
2023-01-30T18:41:29.602Z,12.10
2023-01-30T18:44:04.605Z,13.13
2023-01-30T18:46:38.032Z,12.27
2023-01-30T18:49:11.340Z,15.45
2023-01-30T18:51:44.340Z,15.27
2023-01-30T18:54:17.548Z,14.50
2023-01-30T18:56:51.950Z,13.98
2023-01-30T18:59:26.427Z,13.05
2023-01-30T19:01:59.522Z,13.52
2023-01-30T19:04:32.500Z,13.07
2023-01-30T19:07:05.712Z,12.77
2023-01-30T19:09:38.895Z,12.90
2023-01-30T19:12:30.931Z,13.75
2023-01-30T19:15:04.002Z,12.43
2023-01-30T19:17:39.904Z,12.65
2023-01-30T19:20:14.596Z,11.57
2023-01-30T19:22:49.606Z,12.27
2023-01-30T19:25:23.748Z,14.90
2023-01-30T19:27:58.194Z,12.38
2023-01-30T19:30:33.897Z,12.75
2023-01-30T19:33:06.992Z,12.23
2023-01-30T19:35:42.311Z,11.57
2023-01-30T19:38:15.771Z,12.13
2023-01-30T19:40:48.919Z,13.50
2023-01-30T19:43:23.278Z,12.75
2023-01-30T19:45:59.371Z,17.27
2023-01-30T19:48:35.000Z,18.55
2023-01-30T19:51:13.533Z,17.52
2023-01-30T19:53:51.423Z,16.15
2023-01-30T19:56:25.767Z,16.35
2023-01-30T19:59:02.274Z,16.33
2023-01-30T20:01:37.651Z,17.00
2023-01-30T20:04:10.786Z,16.55
2023-01-30T20:06:46.573Z,17.45
2023-01-30T20:09:19.744Z,16.70
2023-01-30T20:12:01.323Z,16.48
2023-01-30T20:14:38.497Z,17.08
2023-01-30T20:17:14.864Z,16.98
2023-01-30T20:19:48.046Z,16.50
2023-01-30T20:22:21.136Z,14.88
2023-01-30T20:24:54.113Z,16.33
2023-01-30T20:27:29.858Z,15.30
2023-01-30T20:30:07.667Z,14.30
2023-01-30T20:32:40.925Z,12.15
2023-01-30T20:35:16.838Z,11.88
2023-01-30T20:37:49.861Z,13.43
2023-01-30T20:40:22.822Z,11.55
2023-01-30T20:42:55.823Z,12.20
2023-01-30T20:45:30.170Z,15.13
2023-01-30T20:48:03.279Z,12.00
2023-01-30T20:50:36.261Z,14.27
2023-01-30T20:53:09.236Z,12.10
2023-01-30T20:55:42.247Z,10.93
2023-01-30T20:58:15.400Z,11.53
2023-01-30T21:00:49.764Z,12.13
2023-01-30T21:03:24.599Z,10.93
2023-01-30T21:05:58.385Z,11.02
2023-01-30T21:08:32.105Z,11.40
2023-01-30T21:11:06.697Z,9.88
2023-01-30T21:13:41.585Z,11.73
2023-01-30T21:16:19.596Z,9.52
2023-01-30T21:19:00.127Z,11.02
2023-01-30T21:21:38.072Z,10.20
2023-01-30T21:24:14.974Z,10.90
2023-01-30T21:26:49.222Z,9.77
2023-01-30T21:29:24.859Z,10.45
2023-01-30T21:32:05.072Z,9.35
2023-01-30T21:34:38.228Z,11.55
2023-01-30T21:37:31.542Z,10.77
2023-01-30T21:40:22.069Z,9.77
2023-01-30T21:43:12.415Z,9.93
2023-01-30T21:45:45.568Z,8.63
2023-01-30T21:48:19.985Z,9.65
2023-01-30T21:50:56.366Z,8.43
2023-01-30T21:53:33.415Z,9.23
2023-01-30T21:56:09.875Z,8.68
2023-01-30T21:58:44.332Z,9.80
2023-01-30T22:01:17.854Z,8.88
2023-01-30T22:03:53.087Z,9.93
2023-01-30T22:06:26.215Z,9.18
2023-01-30T22:09:00.463Z,9.67
2023-01-30T22:11:37.633Z,8.77
2023-01-30T22:14:13.309Z,8.52
2023-01-30T22:16:46.504Z,10.23
2023-01-30T22:19:35.698Z,8.20
2023-01-30T22:22:09.078Z,8.27
2023-01-30T22:24:42.046Z,8.50
2023-01-30T22:27:16.408Z,8.10
2023-01-30T22:29:50.937Z,8.88
2023-01-30T22:32:23.993Z,7.32
2023-01-30T22:34:58.465Z,7.30
2023-01-30T22:37:31.449Z,8.15
2023-01-30T22:40:05.144Z,8.85
2023-01-30T22:42:41.182Z,7.82
2023-01-30T22:45:14.288Z,7.72
2023-01-30T22:47:49.499Z,7.70
2023-01-30T22:50:24.132Z,8.77
2023-01-30T22:52:58.902Z,7.63
2023-01-30T22:55:31.893Z,7.90
2023-01-30T22:58:04.827Z,8.32
2023-01-30T23:00:38.138Z,9.60
2023-01-30T23:03:13.762Z,6.30
2023-01-30T23:05:57.625Z,7.88
2023-01-30T23:08:31.941Z,7.43
2023-01-30T23:11:14.527Z,7.72
2023-01-30T23:13:50.826Z,7.63
2023-01-30T23:16:26.279Z,7.93
2023-01-30T23:19:00.133Z,7.30
2023-01-30T23:21:37.147Z,7.50
2023-01-30T23:24:13.241Z,7.50
2023-01-30T23:26:52.052Z,6.70
2023-01-30T23:29:25.365Z,8.48
2023-01-30T23:32:02.380Z,6.55
2023-01-30T23:34:46.627Z,7.22
2023-01-30T23:37:43.840Z,6.25
2023-01-30T23:40:17.061Z,6.95
2023-01-30T23:42:50.036Z,6.80
2023-01-30T23:45:23.002Z,6.63
2023-01-30T23:47:55.983Z,5.60
2023-01-30T23:50:29.067Z,6.60
2023-01-30T23:53:03.696Z,5.53
2023-01-30T23:55:36.717Z,6.55
2023-01-30T23:58:09.671Z,6.13
